Time;durP1;ratioP1;P1;durP2;ratioP2;P2;SDS_P1;SDS_P2;PMS_P1;PMS_P2;Temp;Humidity;BMP_temperature;BMP_pressure;BME280_temperature;BME280_humidity;BME280_pressure;Samples;Min_cycle;Max_cycle;Signal;HPM_P1;HPM_P2
2022/10/16 00:09:06;;;;;;;2.60;1.57;;;14.80;1.00;;;;;;6245612;22;20414;-87
2022/10/16 00:15:36;;;;;;;;;;;;;;;;;;;;;
2022/10/16 00:19:01;;;;;;;;;;;;;;;;;;;;;
2022/10/16 00:32:15;;;;;;;4.90;2.00;;;14.90;1.00;;;;;;6245770;22;20389;-87
2022/10/16 00:38:54;;;;;;;;;;;;;;;;;;;;;
2022/10/16 00:45:29;;;;;;;2.07;1.87;;;14.80;1.00;;;;;;6210466;22;20386;-87
2022/10/16 00:51:58;;;;;;;;;;;;;;;;;;;;;
2022/10/16 00:54:45;;;;;;;3.77;1.90;;;14.80;1.00;;;;;;6274977;22;20464;-87
2022/10/16 00:57:33;;;;;;;;;;;;;;;;;;;;;
2022/10/16 01:10:34;;;;;;;2.70;1.83;;;14.50;1.00;;;;;;6240833;22;20739;-87
2022/10/16 01:17:39;;;;;;;2.80;1.60;;;14.50;1.00;;;;;;6225574;22;20408;-87
2022/10/16 01:20:08;;;;;;;1.70;1.50;;;14.40;1.00;;;;;;6268850;22;20451;-87
2022/10/16 01:23:16;;;;;;;5.70;1.60;;;14.40;1.00;;;;;;6275943;22;20381;-87
2022/10/16 01:26:10;;;;;;;5.43;1.83;;;14.40;1.00;;;;;;6199739;22;20413;-88
2022/10/16 01:29:00;;;;;;;;;;;;;;;;;;;;;
2022/10/16 01:31:42;;;;;;;4.50;2.20;;;14.30;1.00;;;;;;6274163;22;20468;-87
2022/10/16 01:34:26;;;;;;;;;;;;;;;;;;;;;
2022/10/16 01:37:28;;;;;;;2.30;1.80;;;14.30;1.00;;;;;;6274363;22;20440;-88
2022/10/16 01:39:58;;;;;;;1.90;1.60;;;14.30;1.00;;;;;;6255745;22;20408;-87
2022/10/16 01:42:41;;;;;;;6.03;2.17;;;14.30;1.00;;;;;;6248858;22;20836;-87
2022/10/16 01:45:18;;;;;;;;;;;;;;;;;;;;;
2022/10/16 01:48:24;;;;;;;4.80;1.63;;;14.20;1.00;;;;;;6276404;22;20434;-87
2022/10/16 01:54:46;;;;;;;1.63;1.17;;;14.20;1.00;;;;;;6247243;22;20897;-87
2022/10/16 02:13:55;;;;;;;4.53;1.90;;;14.40;1.00;;;;;;6246269;22;20429;-87
2022/10/16 02:16:42;;;;;;;;;;;;;;;;;;;;;
2022/10/16 02:19:31;;;;;;;1.43;1.03;;;14.40;1.00;;;;;;6275995;22;20513;-87
2022/10/16 02:25:57;;;;;;;1.53;1.07;;;14.50;1.00;;;;;;6260127;22;20374;-87
2022/10/16 02:33:02;;;;;;;;;;;;;;;;;;;;;
2022/10/16 02:42:49;;;;;;;;;;;;;;;;;;;;;
2022/10/16 02:49:27;;;;;;;1.63;1.30;;;14.50;99.90;;;;;;6253960;22;20387;-87
2022/10/16 02:51:54;;;;;;;1.97;1.10;;;14.40;99.90;;;;;;6272860;22;20731;-87
2022/10/16 03:01:20;;;;;;;;;;;;;;;;;;;;;
2022/10/16 03:07:42;;;;;;;1.77;1.20;;;14.20;99.90;;;;;;6244703;22;20375;-87
2022/10/16 03:10:57;;;;;;;1.30;0.90;;;14.20;99.90;;;;;;6233208;22;20421;-87
2022/10/16 03:23:32;;;;;;;1.50;1.13;;;14.20;99.90;;;;;;6257192;22;20386;-88
2022/10/16 03:26:08;;;;;;;2.73;1.00;;;14.20;99.90;;;;;;6247394;22;20458;-87
2022/10/16 03:54:41;;;;;;;;;;;;;;;;;;;;;
2022/10/16 04:00:52;;;;;;;;;;;;;;;;;;;;;
2022/10/16 04:04:15;;;;;;;3.90;1.73;;;14.00;99.90;;;;;;6277383;22;20456;-88
2022/10/16 04:10:58;;;;;;;;;;;;;;;;;;;;;
2022/10/16 04:13:46;;;;;;;;;;;;;;;;;;;;;
2022/10/16 04:47:22;;;;;;;4.00;1.70;;;13.90;1.00;;;;;;6252883;22;20367;-88
2022/10/16 05:03:11;;;;;;;;;;;;;;;;;;;;;
2022/10/16 05:05:44;;;;;;;2.40;1.87;;;13.90;1.00;;;;;;6278975;22;20422;-87
2022/10/16 05:14:58;;;;;;;2.67;1.87;;;13.90;1.00;;;;;;6272528;22;20379;-87
2022/10/16 05:18:13;;;;;;;2.33;1.70;;;13.90;1.00;;;;;;6277592;22;20849;-88
2022/10/16 05:24:35;;;;;;;2.93;2.37;;;13.90;1.00;;;;;;6272523;22;20443;-87
2022/10/16 05:30:32;;;;;;;3.10;2.43;;;13.90;1.00;;;;;;6248209;22;20410;-87
2022/10/16 05:32:58;;;;;;;2.40;1.97;;;13.90;1.00;;;;;;6250177;22;20853;-87
2022/10/16 05:35:26;;;;;;;3.83;1.70;;;14.00;1.00;;;;;;6250435;22;20469;-87
2022/10/16 05:38:05;;;;;;;;;;;;;;;;;;;;;
2022/10/16 05:48:04;;;;;;;2.23;2.03;;;14.20;1.00;;;;;;6250305;22;20381;-87
2022/10/16 05:57:20;;;;;;;3.40;2.13;;;14.20;1.00;;;;;;6260491;22;20390;-86
2022/10/16 06:03:11;;;;;;;;;;;;;;;;;;;;;
2022/10/16 06:06:06;;;;;;;3.40;2.30;;;14.20;1.00;;;;;;6276035;22;20863;-87
2022/10/16 06:14:54;;;;;;;3.47;2.40;;;14.30;1.00;;;;;;6249420;22;20689;-86
2022/10/16 06:18:02;;;;;;;2.10;1.90;;;14.40;1.00;;;;;;6275617;22;20783;-87
2022/10/16 06:24:16;;;;;;;2.70;2.10;;;14.50;1.00;;;;;;6260233;22;20382;-87
2022/10/16 06:30:47;;;;;;;;;;;;;;;;;;;;;
2022/10/16 06:34:12;;;;;;;;;;;;;;;;;;;;;
2022/10/16 06:40:41;;;;;;;3.00;2.70;;;14.90;1.00;;;;;;6253885;22;20398;-88
2022/10/16 06:43:52;;;;;;;;;;;;;;;;;;;;;
2022/10/16 06:47:01;;;;;;;3.70;2.83;;;15.20;99.90;;;;;;6274839;22;20444;-86
2022/10/16 06:49:48;;;;;;;;;;;;;;;;;;;;;
2022/10/16 07:02:39;;;;;;;;;;;;;;;;;;;;;
2022/10/16 07:05:30;;;;;;;3.53;2.40;;;15.80;1.00;;;;;;6267576;22;20461;-87
2022/10/16 07:14:56;;;;;;;;;;;;;;;;;;;;;
2022/10/16 07:21:25;;;;;;;;;;;;;;;;;;;;;
2022/10/16 07:24:07;;;;;;;;;;;;;;;;;;;;;
2022/10/16 07:26:35;;;;;;;3.13;2.03;;;17.00;1.00;;;;;;6274575;22;20448;-86
2022/10/16 07:29:22;;;;;;;3.47;2.23;;;16.90;99.90;;;;;;6248378;22;20878;-86
2022/10/16 07:31:48;;;;;;;2.37;1.70;;;16.80;99.90;;;;;;6247510;22;20387;-87
2022/10/16 07:34:26;;;;;;;4.80;1.57;;;16.80;99.90;;;;;;6248041;22;20934;-87
2022/10/16 07:40:27;;;;;;;;;;;;;;;;;;;;;
2022/10/16 07:43:08;;;;;;;;;;;;;;;;;;;;;
2022/10/16 07:46:05;;;;;;;4.53;1.30;;;31.30;99.90;;;;;;6273134;22;20446;-85
2022/10/16 07:58:59;;;;;;;;;;;;;;;;;;;;;
2022/10/16 08:02:02;;;;;;;;;;;;;;;;;;;;;
2022/10/16 08:19:21;;;;;;;;;;;;;;;;;;;;;
2022/10/16 08:22:26;;;;;;;;;;;;;;;;;;;;;
2022/10/16 08:25:51;;;;;;;;;;;;;;;;;;;;;
2022/10/16 08:38:17;;;;;;;;;;;;;;;;;;;;;
2022/10/16 08:40:48;;;;;;;1.83;0.70;;;40.50;99.90;;;;;;6267248;22;20470;-86
2022/10/16 08:43:21;;;;;;;2.70;0.80;;;40.40;99.90;;;;;;6273421;22;20840;-85
2022/10/16 08:46:25;;;;;;;1.93;1.13;;;40.40;99.90;;;;;;6273270;22;20425;-86
2022/10/16 08:49:02;;;;;;;2.30;0.97;;;40.40;99.90;;;;;;6214654;22;20411;-85
2022/10/16 08:52:00;;;;;;;;;;;;;;;;;;;;;
2022/10/16 08:54:34;;;;;;;2.63;1.10;;;40.30;99.90;;;;;;6263983;22;20449;-87
2022/10/16 08:57:27;;;;;;;2.10;0.70;;;40.10;99.90;;;;;;6273808;22;20359;-88
2022/10/16 09:00:08;;;;;;;3.17;1.10;;;40.00;99.90;;;;;;6270625;22;20827;-86
2022/10/16 09:02:52;;;;;;;1.30;0.60;;;39.90;99.90;;;;;;6273548;22;20367;-86
2022/10/16 09:05:38;;;;;;;5.13;0.90;;;39.70;99.90;;;;;;6238567;22;20383;-86
2022/10/16 09:08:41;;;;;;;1.30;0.70;;;39.60;99.90;;;;;;6270482;22;20359;-87
2022/10/16 09:11:18;;;;;;;2.00;0.67;;;39.70;99.40;;;;;;6268453;22;20418;-85
2022/10/16 09:17:59;;;;;;;2.30;0.80;;;39.50;97.40;;;;;;6270289;22;20371;-86
2022/10/16 09:20:43;;;;;;;2.77;0.77;;;39.70;96.20;;;;;;6119661;23;20799;-86
2022/10/16 09:23:38;;;;;;;2.37;0.80;;;39.30;94.30;;;;;;6273510;22;20436;-85
2022/10/16 09:26:12;;;;;;;2.60;0.80;;;38.90;92.90;;;;;;6267473;22;20407;-86
2022/10/16 09:28:40;;;;;;;1.50;0.60;;;39.00;92.60;;;;;;6246176;22;20429;-86
2022/10/16 09:31:18;;;;;;;4.63;0.60;;;38.90;91.50;;;;;;6247224;22;20449;-86
2022/10/16 09:33:57;;;;;;;5.47;1.80;;;39.00;99.60;;;;;;6244487;22;20367;-86
2022/10/16 09:36:33;;;;;;;1.70;0.80;;;39.10;90.80;;;;;;6246342;22;20924;-86
2022/10/16 09:39:11;;;;;;;1.30;0.70;;;39.10;91.00;;;;;;6273561;22;20890;-87
2022/10/16 09:41:48;;;;;;;3.53;0.80;;;39.20;90.70;;;;;;6274043;22;20749;-87
2022/10/16 09:44:27;;;;;;;3.30;0.87;;;39.30;90.50;;;;;;6274175;22;20416;-86
2022/10/16 09:47:32;;;;;;;1.60;0.83;;;39.30;88.50;;;;;;6246823;22;20402;-86
2022/10/16 09:50:01;;;;;;;1.30;0.60;;;38.70;84.30;;;;;;6244211;22;21049;-87
2022/10/16 09:52:28;;;;;;;2.40;0.90;;;38.30;84.20;;;;;;6274111;22;20418;-86
2022/10/16 09:54:59;;;;;;;2.60;0.70;;;38.30;83.50;;;;;;6246841;22;20722;-86
2022/10/16 09:57:32;;;;;;;2.67;0.90;;;38.30;82.60;;;;;;6247656;22;20387;-86
2022/10/16 10:00:12;;;;;;;1.70;0.80;;;38.30;83.00;;;;;;6248358;22;20407;-85
2022/10/16 10:02:38;;;;;;;3.20;0.80;;;38.30;82.90;;;;;;6274960;22;20813;-88
2022/10/16 10:05:22;;;;;;;1.70;0.70;;;37.90;79.70;;;;;;6246547;22;20397;-86
2022/10/16 10:08:00;;;;;;;2.50;0.80;;;37.10;77.00;;;;;;6274161;22;20359;-86
2022/10/16 10:10:31;;;;;;;3.00;0.90;;;36.50;76.10;;;;;;6274429;22;20425;-85
2022/10/16 10:12:57;;;;;;;1.87;0.80;;;35.20;73.80;;;;;;6274322;22;20378;-85
2022/10/16 10:15:24;;;;;;;2.20;1.00;;;33.80;69.60;;;;;;6275124;22;20854;-85
2022/10/16 10:17:52;;;;;;;2.10;0.93;;;32.40;68.30;;;;;;6273606;22;20424;-85
2022/10/16 10:20:24;;;;;;;2.47;0.90;;;31.40;68.80;;;;;;6247984;22;20423;-84
2022/10/16 10:22:49;;;;;;;2.80;0.80;;;30.90;70.20;;;;;;6275398;22;20844;-84
2022/10/16 10:25:43;;;;;;;3.03;0.80;;;31.60;77.40;;;;;;6248898;22;20389;-84
2022/10/16 10:28:33;;;;;;;2.67;0.97;;;31.40;78.80;;;;;;6248765;22;20231;-85
2022/10/16 10:31:25;;;;;;;2.70;0.70;;;31.50;80.70;;;;;;6274944;22;20435;-84
2022/10/16 10:34:22;;;;;;;1.63;1.03;;;32.50;86.60;;;;;;6207351;22;20793;-85
2022/10/16 10:37:22;;;;;;;3.50;0.90;;;33.60;90.50;;;;;;6275738;22;20894;-85
2022/10/16 10:40:23;;;;;;;5.20;0.90;;;34.80;92.50;;;;;;6211945;22;20922;-85
2022/10/16 10:43:01;;;;;;;3.90;0.97;;;35.40;93.10;;;;;;6248648;22;20401;-85
2022/10/16 10:45:33;;;;;;;3.40;1.23;;;35.40;92.50;;;;;;6275985;22;20388;-85
2022/10/16 10:48:27;;;;;;;3.63;0.97;;;35.90;92.90;;;;;;6275534;22;20754;-85
2022/10/16 10:51:11;;;;;;;1.90;0.83;;;36.70;93.40;;;;;;6248510;22;20431;-85
2022/10/16 10:54:03;;;;;;;2.07;0.80;;;37.40;94.10;;;;;;6275767;22;20379;-86
2022/10/16 10:57:21;;;;;;;2.30;0.70;;;37.80;93.60;;;;;;6248201;22;20390;-85
2022/10/16 11:00:09;;;;;;;2.50;0.90;;;38.10;93.10;;;;;;6210579;22;20452;-85
2022/10/16 11:03:01;;;;;;;4.97;0.97;;;38.30;92.20;;;;;;6275046;22;20354;-85
2022/10/16 11:05:55;;;;;;;4.07;0.77;;;38.60;91.70;;;;;;6248554;22;20835;-86
2022/10/16 11:08:51;;;;;;;2.27;0.70;;;38.90;91.30;;;;;;6275321;22;20433;-86
2022/10/16 11:11:24;;;;;;;2.20;0.77;;;39.00;90.80;;;;;;6247083;22;20509;-86
2022/10/16 11:14:04;;;;;;;1.90;0.87;;;39.40;90.60;;;;;;6274174;22;20852;-85
2022/10/16 11:16:35;;;;;;;1.30;0.60;;;39.50;90.00;;;;;;6248233;22;20394;-86
2022/10/16 11:19:34;;;;;;;2.70;0.87;;;39.50;86.50;;;;;;6248206;22;20427;-85
2022/10/16 11:22:08;;;;;;;2.17;0.80;;;38.60;83.20;;;;;;6275154;22;20450;-84
2022/10/16 11:25:00;;;;;;;2.10;0.97;;;37.80;79.00;;;;;;6275549;22;20351;-85
2022/10/16 11:27:54;;;;;;;4.07;0.63;;;37.10;76.40;;;;;;6247446;22;21062;-85
2022/10/16 11:30:29;;;;;;;2.30;0.90;;;35.70;71.90;;;;;;6275415;22;20406;-85
2022/10/16 11:33:05;;;;;;;2.23;0.80;;;34.80;69.60;;;;;;6273965;22;20700;-85
2022/10/16 11:35:55;;;;;;;2.43;1.00;;;33.90;67.80;;;;;;6248811;22;20378;-85
2022/10/16 11:38:56;;;;;;;3.17;0.80;;;34.60;74.10;;;;;;6276661;22;20845;-85
2022/10/16 11:41:55;;;;;;;2.70;0.90;;;35.40;78.70;;;;;;6277836;22;20770;-85
2022/10/16 11:44:33;;;;;;;3.70;1.07;;;35.80;80.60;;;;;;6274745;22;20371;-85
2022/10/16 11:47:24;;;;;;;2.70;0.83;;;35.20;76.80;;;;;;6274699;22;20387;-85
2022/10/16 11:50:09;;;;;;;;;;;;;;;;;;;;;
2022/10/16 11:53:28;;;;;;;2.27;0.80;;;35.20;76.80;;;;;;6274843;22;20884;-85
2022/10/16 11:55:56;;;;;;;1.63;0.70;;;34.40;72.60;;;;;;6123586;23;20470;-85
2022/10/16 11:58:26;;;;;;;2.43;0.80;;;33.50;69.70;;;;;;6122343;23;20382;-85
2022/10/16 12:01:12;;;;;;;2.53;0.80;;;32.70;68.90;;;;;;6215292;22;20379;-85
2022/10/16 12:04:11;;;;;;;2.47;0.77;;;32.50;70.50;;;;;;6274805;22;20370;-85
2022/10/16 12:06:53;;;;;;;2.30;0.77;;;32.60;73.20;;;;;;6274731;22;20455;-85
2022/10/16 12:09:40;;;;;;;2.80;0.87;;;33.20;76.90;;;;;;6274578;22;20375;-85
2022/10/16 12:12:28;;;;;;;2.00;0.87;;;33.70;80.50;;;;;;6247306;22;20469;-85
2022/10/16 12:15:34;;;;;;;;;;;;;;;;;;;;;
2022/10/16 12:18:02;;;;;;;2.30;1.10;;;35.10;85.60;;;;;;6274816;22;20433;-85
2022/10/16 12:20:30;;;;;;;2.10;0.60;;;35.50;86.50;;;;;;6274236;22;20429;-86
2022/10/16 12:23:06;;;;;;;2.60;1.03;;;35.50;85.40;;;;;;6274318;22;20382;-85
2022/10/16 12:25:46;;;;;;;1.10;0.90;;;35.00;83.90;;;;;;6247961;22;20383;-85
2022/10/16 12:28:28;;;;;;;2.20;1.20;;;34.20;79.70;;;;;;6273946;22;20479;-84
2022/10/16 12:31:01;;;;;;;5.37;1.30;;;33.30;75.00;;;;;;6274884;22;20484;-85
2022/10/16 12:33:37;;;;;;;1.47;0.80;;;32.60;72.60;;;;;;6273854;22;20366;-85
2022/10/16 12:36:12;;;;;;;1.93;0.70;;;32.10;71.80;;;;;;6247342;22;20435;-86
2022/10/16 12:38:49;;;;;;;2.40;0.70;;;31.80;72.40;;;;;;6274661;22;20394;-84
2022/10/16 12:41:27;;;;;;;3.10;0.90;;;31.50;72.50;;;;;;6247379;22;20693;-85
2022/10/16 12:43:52;;;;;;;1.97;0.67;;;31.20;74.50;;;;;;6247987;22;20382;-85
2022/10/16 12:46:20;;;;;;;2.73;0.80;;;30.90;73.00;;;;;;6274453;22;20379;-85
2022/10/16 12:48:47;;;;;;;2.10;0.80;;;30.70;75.60;;;;;;6273857;22;20641;-84
2022/10/16 12:51:25;;;;;;;1.97;0.60;;;30.90;77.10;;;;;;6272014;22;20426;-83
2022/10/16 12:54:04;;;;;;;1.83;0.70;;;31.20;79.80;;;;;;6273459;22;20738;-85
2022/10/16 12:56:56;;;;;;;1.77;0.67;;;31.70;82.50;;;;;;6274754;22;20366;-85
2022/10/16 12:59:39;;;;;;;3.80;0.60;;;32.30;86.40;;;;;;6273489;22;20425;-84
2022/10/16 13:02:37;;;;;;;5.13;0.80;;;33.00;89.60;;;;;;6244721;22;20717;-85
2022/10/16 13:05:18;;;;;;;2.50;0.70;;;33.10;88.00;;;;;;6273286;22;21098;-85
2022/10/16 13:08:02;;;;;;;1.40;0.70;;;32.50;83.60;;;;;;6244863;22;20382;-85
2022/10/16 13:10:45;;;;;;;1.77;0.60;;;32.40;84.30;;;;;;6245970;22;20923;-86
2022/10/16 13:13:46;;;;;;;2.00;0.60;;;32.50;86.60;;;;;;6274439;22;20389;-85
2022/10/16 13:16:42;;;;;;;0.97;0.60;;;32.50;85.70;;;;;;6272908;22;20357;-85
2022/10/16 13:19:39;;;;;;;3.10;0.63;;;32.80;86.80;;;;;;6273110;22;20925;-85
2022/10/16 13:22:19;;;;;;;3.27;1.10;;;32.90;86.30;;;;;;6275900;22;20387;-86
2022/10/16 13:24:53;;;;;;;1.20;0.60;;;32.70;84.30;;;;;;6251426;22;20454;-85
2022/10/16 13:27:21;;;;;;;1.40;0.80;;;32.20;82.20;;;;;;6249994;22;20408;-85
2022/10/16 13:29:53;;;;;;;1.73;0.60;;;31.50;78.80;;;;;;6279056;22;20411;-88
2022/10/16 13:32:20;;;;;;;1.47;0.80;;;31.00;77.40;;;;;;6247053;22;20484;-85
2022/10/16 13:34:48;;;;;;;81.27;74.60;;;30.60;77.00;;;;;;6273201;22;20392;-85
2022/10/16 13:37:21;;;;;;;2.33;1.20;;;30.40;78.20;;;;;;6274441;22;20375;-85
2022/10/16 13:39:46;;;;;;;2.67;0.83;;;30.40;78.30;;;;;;6246652;22;20402;-85
2022/10/16 13:42:23;;;;;;;2.50;0.70;;;30.00;79.30;;;;;;6273854;22;20378;-85
2022/10/16 13:44:53;;;;;;;1.90;1.00;;;29.90;80.00;;;;;;6247036;22;20148;-84
2022/10/16 13:47:21;;;;;;;19.07;1.70;;;29.70;78.50;;;;;;6273199;22;20371;-85
2022/10/16 13:49:58;;;;;;;6.17;1.00;;;29.50;79.90;;;;;;6271601;22;20723;-84
2022/10/16 13:52:24;;;;;;;6.03;0.87;;;29.20;78.80;;;;;;6272189;22;20431;-85
2022/10/16 13:54:49;;;;;;;14.90;2.30;;;28.90;79.40;;;;;;6271810;22;20926;-84
2022/10/16 13:57:17;;;;;;;3.80;0.90;;;28.50;79.90;;;;;;6273472;22;20145;-85
2022/10/16 13:59:43;;;;;;;5.90;0.90;;;28.30;80.20;;;;;;6275474;22;20226;-85
2022/10/16 14:02:25;;;;;;;1.60;0.87;;;28.10;80.60;;;;;;6275204;22;20832;-85
2022/10/16 14:04:56;;;;;;;4.67;0.90;;;28.00;82.10;;;;;;6275309;22;20179;-87
2022/10/16 14:07:33;;;;;;;48.40;3.23;;;27.90;84.00;;;;;;6275525;22;20366;-85
2022/10/16 14:10:18;;;;;;;14.57;1.30;;;27.90;96.80;;;;;;6274626;22;20433;-85
2022/10/16 14:12:44;;;;;;;3.40;0.90;;;27.90;87.90;;;;;;6274627;22;20371;-85
2022/10/16 14:15:38;;;;;;;3.13;0.90;;;27.90;88.70;;;;;;6274642;22;20450;-86
2022/10/16 14:18:04;;;;;;;3.30;0.87;;;27.70;88.30;;;;;;6226461;22;20909;-85
2022/10/16 14:20:32;;;;;;;16.27;2.00;;;27.40;87.20;;;;;;6232540;22;366476;-85
2022/10/16 14:23:05;;;;;;;5.43;1.10;;;27.00;89.20;;;;;;6276828;22;20839;-84
2022/10/16 14:25:32;;;;;;;3.73;0.90;;;26.70;88.40;;;;;;6250974;22;20378;-85
2022/10/16 14:28:19;;;;;;;1.90;0.80;;;26.40;89.60;;;;;;6249173;22;20457;-84
2022/10/16 14:30:56;;;;;;;1.97;0.60;;;26.30;89.80;;;;;;6276200;22;20427;-85
2022/10/16 14:33:33;;;;;;;4.70;0.80;;;26.20;90.50;;;;;;6275683;22;20379;-86
2022/10/16 14:36:12;;;;;;;3.20;0.80;;;26.10;90.60;;;;;;6276405;22;20885;-87
2022/10/16 14:38:55;;;;;;;7.83;1.20;;;25.90;90.90;;;;;;6275307;22;20468;-88
2022/10/16 14:41:26;;;;;;;4.17;1.23;;;25.80;91.80;;;;;;6249450;22;20382;-87
2022/10/16 14:43:55;;;;;;;2.60;0.80;;;25.70;92.60;;;;;;6277315;22;20841;-85
2022/10/16 14:46:30;;;;;;;2.73;1.60;;;25.60;93.20;;;;;;6276912;22;20457;-86
2022/10/16 14:49:08;;;;;;;2.40;0.90;;;25.50;94.30;;;;;;6249811;22;20413;-87
2022/10/16 14:51:37;;;;;;;1.40;0.70;;;25.40;95.40;;;;;;6247145;22;20426;-86
2022/10/16 14:54:03;;;;;;;3.43;1.83;;;25.20;95.50;;;;;;6274862;22;20413;-86
2022/10/16 14:56:32;;;;;;;2.23;1.50;;;25.10;99.90;;;;;;6248259;22;20371;-87
2022/10/16 14:58:58;;;;;;;5.73;4.57;;;24.90;96.80;;;;;;6249416;22;20427;-86
2022/10/16 15:01:26;;;;;;;17.47;13.93;;;24.70;98.00;;;;;;6286325;22;20375;-85
2022/10/16 15:07:54;;;;;;;1.33;0.70;;;24.30;99.50;;;;;;6260924;22;20382;-88
2022/10/16 15:11:10;;;;;;;;;;;;;;;;;;;;;
2022/10/16 15:14:29;;;;;;;;;;;;;;;;;;;;;
2022/10/16 15:24:03;;;;;;;;;;;;;;;;;;;;;
2022/10/16 15:26:58;;;;;;;1.50;0.70;;;22.90;99.90;;;;;;6275337;22;20457;-86
2022/10/16 15:30:06;;;;;;;4.60;1.10;;;22.90;99.90;;;;;;6260699;22;20477;-86
2022/10/16 15:35:58;;;;;;;2.60;0.87;;;22.50;99.90;;;;;;6247330;22;20384;-87
2022/10/16 15:39:12;;;;;;;2.10;0.83;;;22.40;99.90;;;;;;6250397;22;20412;-87
2022/10/16 15:48:45;;;;;;;2.27;0.90;;;22.10;99.90;;;;;;6251018;22;20773;-86
2022/10/16 15:52:02;;;;;;;;;;;;;;;;;;;;;
2022/10/16 15:54:56;;;;;;;4.00;2.00;;;21.90;99.90;;;;;;6277316;22;20455;-86
2022/10/16 15:57:52;;;;;;;;;;;;;;;;;;;;;
2022/10/16 16:03:27;;;;;;;1.93;0.90;;;21.60;99.90;;;;;;6276890;22;20370;-86
2022/10/16 16:09:11;;;;;;;8.53;1.10;;;21.70;99.90;;;;;;6260565;22;20908;-86
2022/10/16 16:11:38;;;;;;;4.47;1.50;;;21.70;99.90;;;;;;6250704;22;20502;-85
2022/10/16 16:14:05;;;;;;;5.03;2.23;;;21.70;99.90;;;;;;6280547;22;20912;-85
2022/10/16 16:16:36;;;;;;;6.43;2.60;;;21.60;99.90;;;;;;6282861;22;21154;-86
2022/10/16 16:19:02;;;;;;;2.60;1.20;;;21.50;99.90;;;;;;6292203;22;20406;-86
2022/10/16 16:21:27;;;;;;;2.60;1.33;;;21.40;99.90;;;;;;6265099;22;20706;-86
2022/10/16 16:23:56;;;;;;;6.27;1.33;;;21.20;99.90;;;;;;6278548;22;20175;-86
2022/10/16 16:26:27;;;;;;;10.23;1.60;;;21.10;99.90;;;;;;6277332;22;20198;-87
2022/10/16 16:29:05;;;;;;;5.47;1.40;;;20.90;99.90;;;;;;6274257;22;20856;-87
2022/10/16 16:31:36;;;;;;;11.23;1.67;;;20.80;99.90;;;;;;6274394;22;20413;-86
2022/10/16 16:34:01;;;;;;;3.30;1.30;;;20.70;99.90;;;;;;6276187;22;20748;-86
2022/10/16 16:36:34;;;;;;;3.60;1.30;;;20.70;99.90;;;;;;6250288;22;20378;-87
2022/10/16 16:39:03;;;;;;;3.57;1.50;;;20.60;99.90;;;;;;6276281;22;20602;-88
2022/10/16 16:41:39;;;;;;;15.00;1.87;;;20.60;99.90;;;;;;6248753;22;20382;-87
2022/10/16 16:44:59;;;;;;;;;;;;;;;;;;;;;
2022/10/16 16:48:24;;;;;;;;;;;;;;;;;;;;;
2022/10/16 16:51:19;;;;;;;4.30;2.23;;;20.30;99.90;;;;;;6275454;22;20858;-86
2022/10/16 16:54:31;;;;;;;;;;;;;;;;;;;;;
2022/10/16 16:57:04;;;;;;;2.73;1.33;;;20.30;99.90;;;;;;6274849;22;20417;-86
2022/10/16 16:59:55;;;;;;;2.27;1.30;;;20.40;99.90;;;;;;6273256;22;20497;-85
2022/10/16 17:02:36;;;;;;;;;;;;;;;;;;;;;
2022/10/16 17:08:23;;;;;;;4.40;1.97;;;20.30;99.90;;;;;;6258075;22;20409;-86
2022/10/16 17:21:31;;;;;;;;;;;;;;;;;;;;;
2022/10/16 17:27:23;;;;;;;3.77;2.90;;;20.10;99.90;;;;;;6259712;22;20384;-87
2022/10/16 17:30:36;;;;;;;6.70;3.40;;;20.10;99.90;;;;;;6250114;22;20425;-86
2022/10/16 17:43:40;;;;;;;6.07;3.47;;;20.00;99.90;;;;;;6254156;22;20450;-87
2022/10/16 17:46:32;;;;;;;4.80;2.40;;;19.90;99.90;;;;;;6250893;22;20473;-86
2022/10/16 17:49:47;;;;;;;4.20;2.10;;;19.90;99.90;;;;;;6217552;22;20405;-88
2022/10/16 17:55:58;;;;;;;;;;;;;;;;;;;;;
2022/10/16 18:11:58;;;;;;;;;;;;;;;;;;;;;
2022/10/16 18:14:57;;;;;;;;;;;;;;;;;;;;;
2022/10/16 18:18:06;;;;;;;4.67;2.03;;;19.40;1.00;;;;;;6263926;22;20449;-88
2022/10/16 18:24:49;;;;;;;3.37;1.10;;;19.20;97.10;;;;;;6215351;22;20384;-87
2022/10/16 18:27:31;;;;;;;3.50;1.30;;;19.20;99.90;;;;;;6277656;22;20725;-87
2022/10/16 18:30:17;;;;;;;3.00;1.47;;;19.20;99.90;;;;;;6250370;22;20400;-88
2022/10/16 18:49:01;;;;;;;3.93;2.27;;;19.50;1.00;;;;;;6261248;22;20404;-87
2022/10/16 18:55:23;;;;;;;;;;;;;;;;;;;;;
2022/10/16 18:58:21;;;;;;;;;;;;;;;;;;;;;
2022/10/16 19:01:44;;;;;;;;;;;;;;;;;;;;;
2022/10/16 19:14:01;;;;;;;3.60;2.20;;;19.20;1.00;;;;;;6253148;22;20375;-88
2022/10/16 19:19:25;;;;;;;7.47;2.80;;;19.00;1.00;;;;;;6258182;22;20425;-88
2022/10/16 19:22:26;;;;;;;;;;;;;;;;;;;;;
2022/10/16 19:24:54;;;;;;;4.03;2.50;;;18.80;99.90;;;;;;6279033;22;20449;-89
2022/10/16 19:28:10;;;;;;;;;;;;;;;;;;;;;
2022/10/16 19:31:15;;;;;;;;;;;;;;;;;;;;;
2022/10/16 19:46:39;;;;;;;7.93;2.90;;;18.40;99.90;;;;;;6261414;22;20478;-88
2022/10/16 19:50:11;;;;;;;5.10;2.53;;;18.40;1.00;;;;;;6262335;22;20409;-88
2022/10/16 19:53:06;;;;;;;5.33;2.60;;;18.40;99.90;;;;;;6270018;22;20930;-86
2022/10/16 20:19:15;;;;;;;;;;;;;;;;;;;;;
2022/10/16 20:28:18;;;;;;;2.50;1.93;;;18.30;1.00;;;;;;6245543;22;20407;-86
2022/10/16 20:44:52;;;;;;;;;;;;;;;;;;;;;
2022/10/16 21:05:12;;;;;;;5.30;2.97;;;17.70;99.90;;;;;;6066678;23;20390;-88
2022/10/16 21:18:44;;;;;;;3.90;3.50;;;17.40;99.90;;;;;;6251817;22;20379;-88
2022/10/16 21:47:38;;;;;;;4.70;3.40;;;17.20;99.90;;;;;;6248134;22;20466;-87
2022/10/16 21:50:18;;;;;;;5.20;4.20;;;17.20;99.90;;;;;;6275398;22;20395;-88
2022/10/16 22:03:36;;;;;;;6.60;4.60;;;17.10;99.90;;;;;;6259106;22;20380;-88
2022/10/16 22:06:36;;;;;;;8.03;4.33;;;17.10;99.90;;;;;;6248913;22;20377;-87
2022/10/16 22:09:52;;;;;;;;;;;;;;;;;;;;;
2022/10/16 22:19:01;;;;;;;5.00;4.60;;;17.00;1.00;;;;;;6254847;22;20395;-87
2022/10/16 22:31:56;;;;;;;5.60;5.10;;;16.80;1.00;;;;;;6270403;22;20517;-87
2022/10/16 22:37:32;;;;;;;5.57;5.07;;;16.80;1.00;;;;;;6255310;22;20471;-87
2022/10/16 22:40:29;;;;;;;6.60;5.20;;;16.80;1.00;;;;;;6276433;22;20719;-87
2022/10/16 22:43:06;;;;;;;;;;;;;;;;;;;;;
2022/10/16 22:45:36;;;;;;;5.73;5.13;;;16.70;1.00;;;;;;6276402;22;20438;-87
2022/10/16 22:49:00;;;;;;;7.57;5.97;;;16.70;1.00;;;;;;6276160;22;20367;-87
2022/10/16 22:58:20;;;;;;;11.67;5.23;;;16.70;1.00;;;;;;6255454;22;20893;-87
2022/10/16 23:04:46;;;;;;;7.30;5.63;;;16.70;1.00;;;;;;6248934;22;20409;-87
2022/10/16 23:10:56;;;;;;;;;;;;;;;;;;;;;
2022/10/16 23:13:53;;;;;;;10.63;6.67;;;16.60;1.00;;;;;;6263178;22;20928;-86
2022/10/16 23:16:40;;;;;;;8.90;6.17;;;16.60;1.00;;;;;;6247319;22;20383;-86
2022/10/16 23:22:51;;;;;;;9.93;6.83;;;16.60;1.00;;;;;;6257645;22;20413;-87
2022/10/16 23:25:48;;;;;;;13.70;6.83;;;16.60;1.00;;;;;;6275581;22;20375;-86
2022/10/16 23:28:46;;;;;;;;;;;;;;;;;;;;;
2022/10/16 23:31:41;;;;;;;8.77;5.93;;;16.60;1.00;;;;;;6274842;22;20522;-86
2022/10/16 23:34:36;;;;;;;9.43;6.67;;;16.60;1.00;;;;;;6257441;22;20411;-86
2022/10/16 23:40:15;;;;;;;8.60;6.70;;;16.60;1.00;;;;;;6251823;22;20453;-86
2022/10/16 23:43:24;;;;;;;9.40;7.27;;;16.60;1.00;;;;;;6275172;22;20356;-86
2022/10/16 23:49:36;;;;;;;;;;;;;;;;;;;;;
2022/10/16 23:52:21;;;;;;;7.53;6.43;;;16.60;1.00;;;;;;6273969;22;20513;-86
2022/10/16 23:54:49;;;;;;;8.13;6.33;;;16.50;1.00;;;;;;6274883;22;20413;-86
2022/10/16 23:57:27;;;;;;;;;;;;;;;;;;;;;
